createdAt,value
2019-01-21T00:01:52.008Z,36.13
2019-01-21T00:04:22.090Z,33.42
2019-01-21T00:06:52.234Z,36.15
2019-01-21T00:09:22.356Z,36.63
2019-01-21T00:11:52.459Z,35.47
2019-01-21T00:14:22.604Z,36.07
2019-01-21T00:16:52.730Z,35.37
2019-01-21T00:19:22.866Z,37.10
2019-01-21T00:21:52.939Z,36.63
2019-01-21T00:24:24.038Z,36.27
2019-01-21T00:26:53.388Z,36.23
2019-01-21T00:29:23.484Z,35.37
2019-01-21T00:31:53.490Z,38.43
2019-01-21T00:34:23.670Z,36.37
2019-01-21T00:36:53.737Z,35.40
2019-01-21T00:39:23.886Z,36.10
2019-01-21T00:41:56.395Z,37.33
2019-01-21T00:44:25.051Z,35.40
2019-01-21T00:46:54.466Z,34.50
2019-01-21T00:49:24.425Z,36.40
2019-01-21T00:51:54.443Z,34.07
2019-01-21T00:54:24.595Z,35.50
2019-01-21T00:56:54.691Z,35.55
2019-01-21T00:59:24.766Z,34.27
2019-01-21T01:01:54.866Z,35.63
2019-01-21T01:04:24.985Z,34.57
2019-01-21T01:06:55.133Z,36.10
2019-01-21T01:09:25.280Z,36.20
2019-01-21T01:11:55.362Z,36.65
2019-01-21T01:14:25.826Z,36.90
2019-01-21T01:16:55.646Z,35.17
2019-01-21T01:19:25.762Z,35.65
2019-01-21T01:21:55.802Z,35.60
2019-01-21T01:24:25.964Z,34.93
2019-01-21T01:26:58.908Z,38.00
2019-01-21T01:29:28.302Z,36.20
2019-01-21T01:31:57.715Z,36.53
2019-01-21T01:34:27.100Z,36.23
2019-01-21T01:36:57.595Z,34.37
2019-01-21T01:39:26.984Z,35.87
2019-01-21T01:41:56.848Z,35.88
2019-01-21T01:44:26.995Z,35.28
2019-01-21T01:46:56.423Z,37.30
2019-01-21T01:49:25.874Z,35.90
2019-01-21T01:51:55.327Z,35.97
2019-01-21T01:54:24.860Z,33.47
2019-01-21T01:56:54.552Z,37.10
2019-01-21T01:59:23.951Z,35.53
2019-01-21T02:01:53.380Z,34.90
2019-01-21T02:04:22.822Z,35.80
2019-01-21T02:06:52.269Z,33.73
2019-01-21T02:09:22.002Z,33.80
2019-01-21T02:11:51.422Z,33.63
2019-01-21T02:14:20.811Z,33.90
2019-01-21T02:16:50.256Z,34.03
2019-01-21T02:19:22.119Z,33.07
2019-01-21T02:21:52.806Z,36.27
2019-01-21T02:24:23.839Z,34.97
2019-01-21T02:26:56.334Z,33.73
2019-01-21T02:29:34.677Z,33.10
2019-01-21T02:32:22.762Z,34.23
2019-01-21T02:35:00.841Z,32.67
2019-01-21T02:37:33.313Z,34.17
2019-01-21T02:40:15.065Z,35.00
2019-01-21T02:43:02.888Z,34.40
2019-01-21T02:45:56.515Z,33.80
2019-01-21T02:48:31.935Z,32.77
2019-01-21T02:51:08.861Z,34.93
2019-01-21T02:53:46.738Z,34.93
2019-01-21T02:56:24.787Z,35.00
2019-01-21T02:59:02.719Z,34.37
2019-01-21T03:01:37.956Z,35.83
2019-01-21T03:04:30.126Z,36.83
2019-01-21T03:07:11.305Z,33.03
2019-01-21T03:09:49.650Z,34.57
2019-01-21T03:12:22.288Z,34.53
2019-01-21T03:15:21.680Z,35.77
2019-01-21T03:18:26.169Z,34.93
2019-01-21T03:21:18.378Z,32.80
2019-01-21T03:24:02.996Z,34.90
2019-01-21T03:26:35.535Z,35.47
2019-01-21T03:29:10.530Z,34.07
2019-01-21T03:31:50.430Z,34.37
2019-01-21T03:34:44.451Z,33.20
2019-01-21T03:37:35.094Z,33.13
2019-01-21T03:40:22.328Z,33.07
2019-01-21T03:43:02.988Z,34.47
2019-01-21T03:45:47.835Z,32.93
2019-01-21T03:48:21.451Z,33.07
2019-01-21T03:51:03.154Z,33.73
2019-01-21T03:53:51.802Z,34.43
2019-01-21T03:56:24.349Z,33.23
2019-01-21T03:59:02.552Z,32.60
2019-01-21T04:01:35.484Z,33.77
2019-01-21T04:04:22.814Z,35.53
2019-01-21T04:06:55.734Z,34.67
2019-01-21T04:09:34.267Z,35.57
2019-01-21T04:12:09.994Z,36.07
2019-01-21T04:14:57.786Z,34.17
2019-01-21T04:17:57.375Z,34.53
2019-01-21T04:20:46.446Z,36.70
2019-01-21T04:23:33.868Z,33.93
2019-01-21T04:26:14.918Z,32.67
2019-01-21T04:28:50.470Z,33.13
2019-01-21T04:31:28.630Z,34.80
2019-01-21T04:34:07.018Z,34.43
2019-01-21T04:36:56.855Z,33.73
2019-01-21T04:39:43.759Z,35.10
2019-01-21T04:42:33.254Z,36.73
2019-01-21T04:45:14.964Z,36.37
2019-01-21T04:47:47.569Z,35.30
2019-01-21T04:50:46.042Z,34.50
2019-01-21T04:53:18.607Z,35.43
2019-01-21T04:56:05.764Z,37.03
2019-01-21T04:58:40.939Z,35.70
2019-01-21T05:01:30.202Z,36.33
2019-01-21T05:04:17.836Z,34.83
2019-01-21T05:07:05.820Z,34.80
2019-01-21T05:09:47.694Z,35.60
2019-01-21T05:12:35.128Z,35.03
2019-01-21T05:15:30.273Z,34.53
2019-01-21T05:18:21.700Z,35.23
2019-01-21T05:21:13.668Z,34.50
2019-01-21T05:24:02.908Z,35.27
2019-01-21T05:26:44.080Z,35.57
2019-01-21T05:29:32.998Z,34.97
2019-01-21T05:32:23.346Z,35.27
2019-01-21T05:35:15.188Z,36.17
2019-01-21T05:37:50.731Z,35.00
2019-01-21T05:40:25.920Z,32.53
2019-01-21T05:43:23.943Z,34.90
2019-01-21T05:46:14.814Z,35.03
2019-01-21T05:49:02.210Z,35.33
2019-01-21T05:51:46.722Z,35.90
2019-01-21T05:54:28.678Z,36.60
2019-01-21T05:57:10.486Z,35.37
2019-01-21T05:59:51.799Z,34.67
2019-01-21T06:02:42.405Z,34.87
2019-01-21T06:05:37.394Z,34.15
2019-01-21T06:08:15.795Z,33.97
2019-01-21T06:10:54.113Z,33.30
2019-01-21T06:13:38.324Z,36.20
2019-01-21T06:16:31.920Z,35.27
2019-01-21T06:19:06.932Z,35.07
2019-01-21T06:21:42.354Z,35.17
2019-01-21T06:24:18.371Z,37.03
2019-01-21T06:27:05.682Z,36.00
2019-01-21T06:29:43.855Z,34.93
2019-01-21T06:32:18.958Z,33.20
2019-01-21T06:35:12.406Z,35.40
2019-01-21T06:37:50.701Z,35.83
2019-01-21T06:40:37.851Z,34.20
2019-01-21T06:43:27.761Z,35.03
2019-01-21T06:46:00.313Z,33.50
2019-01-21T06:49:06.224Z,36.87
2019-01-21T06:52:10.459Z,34.10
2019-01-21T06:55:02.362Z,32.73
2019-01-21T06:58:00.603Z,35.13
2019-01-21T07:00:57.216Z,33.07
2019-01-21T07:03:44.106Z,34.50
2019-01-21T07:06:39.507Z,34.73
2019-01-21T07:09:17.459Z,33.85
2019-01-21T07:12:06.431Z,35.50
2019-01-21T07:14:56.941Z,34.53
2019-01-21T07:17:49.369Z,36.13
2019-01-21T07:20:40.046Z,35.53
2019-01-21T07:23:35.527Z,35.33
2019-01-21T07:26:20.010Z,35.00
2019-01-21T07:28:58.220Z,36.40
2019-01-21T07:31:38.782Z,34.90
2019-01-21T07:34:35.147Z,34.50
2019-01-21T07:37:22.804Z,34.07
2019-01-21T07:40:01.191Z,34.67
2019-01-21T07:42:49.751Z,35.47
2019-01-21T07:45:41.312Z,33.30
2019-01-21T07:48:23.908Z,33.97
2019-01-21T07:50:56.356Z,34.57
2019-01-21T07:53:46.996Z,32.73
2019-01-21T07:56:52.174Z,34.40
2019-01-21T07:59:44.051Z,33.77
2019-01-21T08:02:31.178Z,33.43
2019-01-21T08:05:15.447Z,35.33
2019-01-21T08:07:54.638Z,34.83
2019-01-21T08:10:46.312Z,35.97
2019-01-21T08:13:33.828Z,35.43
2019-01-21T08:16:21.371Z,35.97
2019-01-21T08:19:10.262Z,35.73
2019-01-21T08:22:02.495Z,37.13
2019-01-21T08:24:52.949Z,35.63
2019-01-21T08:27:36.989Z,36.90
2019-01-21T08:30:30.975Z,35.47
2019-01-21T08:33:22.909Z,35.57
2019-01-21T08:36:11.771Z,34.10
2019-01-21T08:38:56.088Z,36.40
2019-01-21T08:41:34.192Z,34.43
2019-01-21T08:44:28.942Z,35.67
2019-01-21T08:47:18.091Z,34.93
2019-01-21T08:49:56.284Z,35.57
2019-01-21T08:52:34.670Z,36.57
2019-01-21T08:55:31.691Z,35.80
2019-01-21T08:58:12.823Z,39.07
2019-01-21T09:01:00.515Z,36.27
2019-01-21T09:03:53.730Z,35.70
2019-01-21T09:06:44.107Z,36.33
2019-01-21T09:09:41.902Z,37.77
2019-01-21T09:12:20.221Z,36.80
2019-01-21T09:15:19.363Z,36.70
2019-01-21T09:18:09.990Z,37.40
2019-01-21T09:20:54.082Z,36.23
2019-01-21T09:23:44.056Z,37.83
2019-01-21T09:26:25.161Z,38.23
2019-01-21T09:29:21.789Z,39.80
2019-01-21T09:32:03.555Z,39.13
2019-01-21T09:34:38.615Z,37.47
2019-01-21T09:37:23.060Z,38.50
2019-01-21T09:40:13.639Z,37.37
2019-01-21T09:43:04.167Z,38.77
2019-01-21T09:45:53.388Z,35.83
2019-01-21T09:48:21.753Z,37.10
2019-01-21T09:50:51.845Z,38.43
2019-01-21T09:53:21.619Z,38.97
2019-01-21T09:55:52.800Z,36.90
2019-01-21T09:58:24.360Z,38.83
2019-01-21T10:00:54.137Z,39.50
2019-01-21T10:03:24.131Z,38.37
2019-01-21T10:05:56.544Z,37.37
2019-01-21T10:08:31.797Z,38.20
2019-01-21T10:11:26.745Z,39.37
2019-01-21T10:14:12.149Z,36.27
2019-01-21T10:16:50.843Z,37.30
2019-01-21T10:19:32.421Z,36.30
2019-01-21T10:22:20.167Z,33.80
2019-01-21T10:25:10.455Z,34.93
2019-01-21T10:27:45.655Z,34.90
2019-01-21T10:30:34.566Z,33.53
2019-01-21T10:33:29.651Z,34.57
2019-01-21T10:36:11.167Z,33.33
2019-01-21T10:38:49.639Z,33.23
2019-01-21T10:41:34.419Z,35.23
2019-01-21T10:44:12.425Z,33.20
2019-01-21T10:46:56.510Z,33.57
2019-01-21T10:49:44.141Z,33.93
2019-01-21T10:52:19.141Z,32.27
2019-01-21T10:55:08.179Z,31.90
2019-01-21T10:57:43.592Z,33.57
2019-01-21T11:00:32.580Z,33.10
2019-01-21T11:03:10.651Z,31.30
2019-01-21T11:05:45.877Z,32.57
2019-01-21T11:08:45.662Z,30.83
2019-01-21T11:11:30.004Z,32.80
2019-01-21T11:14:31.641Z,32.40
2019-01-21T11:17:09.959Z,29.27
2019-01-21T11:19:51.342Z,30.00
2019-01-21T11:22:26.595Z,30.00
2019-01-21T11:25:16.464Z,29.80
2019-01-21T11:27:48.878Z,30.07
2019-01-21T11:30:36.525Z,31.50
2019-01-21T11:33:23.819Z,29.63
2019-01-21T11:36:21.735Z,29.93
2019-01-21T11:39:06.180Z,30.10
2019-01-21T11:41:38.731Z,28.93
2019-01-21T11:44:13.896Z,27.70
2019-01-21T11:46:46.460Z,27.77
2019-01-21T11:49:35.611Z,26.77
2019-01-21T11:52:22.800Z,28.57
2019-01-21T11:55:03.907Z,27.47
2019-01-21T11:57:51.202Z,27.40
2019-01-21T12:00:46.508Z,27.13
2019-01-21T12:03:23.576Z,26.60
2019-01-21T12:05:55.480Z,27.20
2019-01-21T12:08:44.127Z,26.53
2019-01-21T12:11:16.618Z,27.27
2019-01-21T12:14:11.842Z,27.10
2019-01-21T12:17:10.832Z,28.10
2019-01-21T12:19:51.913Z,26.83
2019-01-21T12:22:27.466Z,27.67
2019-01-21T12:24:59.925Z,26.83
2019-01-21T12:27:38.529Z,27.00
2019-01-21T12:30:16.287Z,26.87
2019-01-21T12:33:00.951Z,25.67
2019-01-21T12:35:36.109Z,25.10
2019-01-21T12:38:28.223Z,26.60
2019-01-21T12:41:06.524Z,27.43
2019-01-21T12:43:59.858Z,26.67
2019-01-21T12:46:35.160Z,25.13
2019-01-21T12:49:25.690Z,26.00
2019-01-21T12:52:03.924Z,26.53
2019-01-21T12:54:36.421Z,25.33
2019-01-21T12:57:25.295Z,25.30
2019-01-21T13:00:12.638Z,26.53
2019-01-21T13:02:57.030Z,24.90
2019-01-21T13:05:44.595Z,26.30
2019-01-21T13:08:31.698Z,28.00
2019-01-21T13:11:07.781Z,26.63
2019-01-21T13:14:06.211Z,26.25
2019-01-21T13:16:35.841Z,27.47
2019-01-21T13:19:32.005Z,25.83
2019-01-21T13:22:16.314Z,26.83
2019-01-21T13:25:16.164Z,27.03
2019-01-21T13:27:57.592Z,26.83
2019-01-21T13:30:39.128Z,27.30
2019-01-21T13:33:32.444Z,26.63
2019-01-21T13:36:14.304Z,26.00
2019-01-21T13:38:55.449Z,25.70
2019-01-21T13:41:39.782Z,26.97
2019-01-21T13:44:20.869Z,28.03
2019-01-21T13:47:16.161Z,27.60
2019-01-21T13:50:00.255Z,27.83
2019-01-21T13:52:50.885Z,27.57
2019-01-21T13:55:32.343Z,28.23
2019-01-21T13:58:36.294Z,28.03
2019-01-21T14:01:08.783Z,28.57
2019-01-21T14:03:59.257Z,27.37
2019-01-21T14:06:34.389Z,28.43
2019-01-21T14:09:26.461Z,29.20
2019-01-21T14:12:11.230Z,28.93
2019-01-21T14:14:49.603Z,28.87
2019-01-21T14:17:49.216Z,30.13
2019-01-21T14:20:36.520Z,29.23
2019-01-21T14:23:11.553Z,30.17
2019-01-21T14:26:01.847Z,29.15
2019-01-21T14:28:52.524Z,29.60
2019-01-21T14:31:36.857Z,28.87
2019-01-21T14:34:18.462Z,28.63
2019-01-21T14:36:59.189Z,29.67
2019-01-21T14:39:48.094Z,30.37
2019-01-21T14:42:32.440Z,41.00
2019-01-21T14:45:19.864Z,31.37
2019-01-21T14:47:55.259Z,49.70
2019-01-21T14:50:50.267Z,32.30
2019-01-21T14:53:24.197Z,30.80
2019-01-21T14:56:08.435Z,31.53
2019-01-21T14:58:40.971Z,32.00
2019-01-21T15:01:16.448Z,33.07
2019-01-21T15:03:57.438Z,31.40
2019-01-21T15:06:38.834Z,31.37
2019-01-21T15:09:19.614Z,31.17
2019-01-21T15:12:09.563Z,30.57
2019-01-21T15:14:44.749Z,30.47
2019-01-21T15:17:21.504Z,31.77
2019-01-21T15:19:51.733Z,31.40
2019-01-21T15:22:29.949Z,30.13
2019-01-21T15:25:09.079Z,31.63
2019-01-21T15:27:57.057Z,31.83
2019-01-21T15:30:29.594Z,33.77
2019-01-21T15:33:17.444Z,32.20
2019-01-21T15:36:01.770Z,32.73
2019-01-21T15:38:37.047Z,32.50
2019-01-21T15:41:27.034Z,31.27
2019-01-21T15:43:59.577Z,33.30
2019-01-21T15:46:48.677Z,32.47
2019-01-21T15:49:27.111Z,31.13
2019-01-21T15:52:05.795Z,32.53
2019-01-21T15:54:56.448Z,32.33
2019-01-21T15:57:45.866Z,33.30
2019-01-21T16:00:39.407Z,31.70
2019-01-21T16:03:14.846Z,32.10
2019-01-21T16:05:55.748Z,31.93
2019-01-21T16:08:28.258Z,30.33
2019-01-21T16:11:12.655Z,32.03
2019-01-21T16:13:45.266Z,30.50
2019-01-21T16:16:29.911Z,31.70
2019-01-21T16:19:02.558Z,31.03
2019-01-21T16:21:59.164Z,29.37
2019-01-21T16:24:37.219Z,31.77
2019-01-21T16:27:27.742Z,30.87
2019-01-21T16:30:00.264Z,29.70
2019-01-21T16:32:32.300Z,29.07
2019-01-21T16:35:28.627Z,29.63
2019-01-21T16:38:01.212Z,29.50
2019-01-21T16:40:39.573Z,30.13
2019-01-21T16:43:09.108Z,31.97
2019-01-21T16:45:38.466Z,31.57
2019-01-21T16:48:08.012Z,30.40
2019-01-21T16:50:38.537Z,30.60
2019-01-21T16:53:08.003Z,31.87
2019-01-21T16:55:37.467Z,30.10
2019-01-21T16:58:06.993Z,29.50
2019-01-21T17:00:36.432Z,29.77
2019-01-21T17:03:06.049Z,30.33
2019-01-21T17:05:35.500Z,32.07
2019-01-21T17:08:05.090Z,32.63
2019-01-21T17:10:39.114Z,30.93
2019-01-21T17:13:05.630Z,32.40
2019-01-21T17:15:35.091Z,29.47
2019-01-21T17:18:07.222Z,35.30
2019-01-21T17:20:36.681Z,38.53
2019-01-21T17:23:06.117Z,35.83
2019-01-21T17:25:35.581Z,32.07
2019-01-21T17:28:05.090Z,30.83
2019-01-21T17:30:34.544Z,33.43
2019-01-21T17:33:04.061Z,31.37
2019-01-21T17:35:33.506Z,29.93
2019-01-21T17:38:04.246Z,29.10
2019-01-21T17:40:34.838Z,29.70
2019-01-21T17:43:04.342Z,30.20
2019-01-21T17:45:33.791Z,28.23
2019-01-21T17:48:03.329Z,28.40
2019-01-21T17:50:34.305Z,28.20
2019-01-21T17:53:03.915Z,28.80
2019-01-21T17:55:33.366Z,29.20
2019-01-21T17:58:02.798Z,27.10
2019-01-21T18:00:32.255Z,29.13
2019-01-21T18:03:01.698Z,29.00
2019-01-21T18:05:31.168Z,28.43
2019-01-21T18:08:00.622Z,28.13
2019-01-21T18:10:31.436Z,28.30
2019-01-21T18:13:00.929Z,27.13
2019-01-21T18:15:30.385Z,27.87
2019-01-21T18:17:59.831Z,28.67
2019-01-21T18:20:29.278Z,28.07
2019-01-21T18:22:58.723Z,27.73
2019-01-21T18:25:29.209Z,27.00
2019-01-21T18:27:58.664Z,29.30
2019-01-21T18:30:29.243Z,28.40
2019-01-21T18:32:58.707Z,29.23
2019-01-21T18:35:28.190Z,28.12
2019-01-21T18:37:57.647Z,29.77
2019-01-21T18:40:28.669Z,29.07
2019-01-21T18:43:00.176Z,28.97
2019-01-21T18:45:31.023Z,30.57
2019-01-21T18:48:00.477Z,30.10
2019-01-21T18:50:29.986Z,30.20
2019-01-21T18:52:59.448Z,31.73
2019-01-21T18:55:28.888Z,32.87
2019-01-21T18:57:58.333Z,30.60
2019-01-21T19:00:28.776Z,32.37
2019-01-21T19:02:59.570Z,33.97
2019-01-21T19:05:29.021Z,30.67
2019-01-21T19:08:00.888Z,32.07
2019-01-21T19:10:31.961Z,33.57
2019-01-21T19:13:01.421Z,33.13
2019-01-21T19:15:31.391Z,33.57
2019-01-21T19:18:00.946Z,33.43
2019-01-21T19:20:32.042Z,32.37
2019-01-21T19:23:01.494Z,32.17
2019-01-21T19:25:30.953Z,33.00
2019-01-21T19:28:00.408Z,32.43
2019-01-21T19:30:31.470Z,33.53
2019-01-21T19:33:02.012Z,35.17
2019-01-21T19:35:35.290Z,34.83
2019-01-21T19:38:06.161Z,35.70
2019-01-21T19:40:37.427Z,35.30
2019-01-21T19:43:06.988Z,33.93
2019-01-21T19:45:36.434Z,34.57
2019-01-21T19:48:07.360Z,34.40
2019-01-21T19:50:38.352Z,34.27
2019-01-21T19:53:07.852Z,33.57
2019-01-21T19:55:41.699Z,33.97
2019-01-21T19:58:15.354Z,33.97
2019-01-21T20:00:45.012Z,32.37
2019-01-21T20:03:14.487Z,32.07
2019-01-21T20:05:43.989Z,34.30
2019-01-21T20:08:18.336Z,33.07
2019-01-21T20:10:47.804Z,34.07
2019-01-21T20:13:18.763Z,33.43
2019-01-21T20:15:48.201Z,32.97
2019-01-21T20:18:17.718Z,34.67
2019-01-21T20:20:48.010Z,30.17
2019-01-21T20:23:17.447Z,33.73
2019-01-21T20:25:48.129Z,31.57
2019-01-21T20:28:19.295Z,30.77
2019-01-21T20:30:48.748Z,31.10
2019-01-21T20:33:20.888Z,30.90
2019-01-21T20:35:50.340Z,29.57
2019-01-21T20:38:19.789Z,30.50
2019-01-21T20:40:49.269Z,30.23
2019-01-21T20:43:21.382Z,31.13
2019-01-21T20:45:52.274Z,31.90
2019-01-21T20:48:21.715Z,34.00
2019-01-21T20:50:51.230Z,33.00
2019-01-21T20:53:28.045Z,32.03
2019-01-21T20:55:56.023Z,33.83
2019-01-21T20:58:25.489Z,36.07
2019-01-21T21:00:57.666Z,34.47
2019-01-21T21:03:34.141Z,36.70
2019-01-21T21:06:03.760Z,36.70
2019-01-21T21:08:33.300Z,38.37
2019-01-21T21:11:02.774Z,36.57
2019-01-21T21:13:32.567Z,37.87
2019-01-21T21:16:02.179Z,38.37
2019-01-21T21:18:31.637Z,40.83
2019-01-21T21:21:01.090Z,38.37
2019-01-21T21:23:33.726Z,38.30
2019-01-21T21:26:03.204Z,38.80
2019-01-21T21:28:33.493Z,39.70
2019-01-21T21:31:02.939Z,38.33
2019-01-21T21:33:32.407Z,38.33
2019-01-21T21:36:01.838Z,41.37
2019-01-21T21:38:31.288Z,40.10
2019-01-21T21:41:00.800Z,38.43
2019-01-21T21:43:30.264Z,38.83
2019-01-21T21:45:59.766Z,37.53
2019-01-21T21:48:31.826Z,42.73
2019-01-21T21:51:00.959Z,41.50
2019-01-21T21:53:30.488Z,39.97
2019-01-21T21:56:00.176Z,39.37
2019-01-21T21:58:30.379Z,41.77
2019-01-21T22:01:00.400Z,41.50
2019-01-21T22:03:30.651Z,37.97
2019-01-21T22:06:00.689Z,37.73
2019-01-21T22:08:30.840Z,38.13
2019-01-21T22:11:01.039Z,39.23
2019-01-21T22:13:31.088Z,39.85
2019-01-21T22:16:01.188Z,41.03
2019-01-21T22:18:31.281Z,40.30
2019-01-21T22:21:02.714Z,35.57
2019-01-21T22:23:32.846Z,46.00
2019-01-21T22:26:03.054Z,39.88
2019-01-21T22:28:33.118Z,47.50
2019-01-21T22:31:03.116Z,41.53
2019-01-21T22:33:34.864Z,43.37
2019-01-21T22:36:04.377Z,39.47
2019-01-21T22:38:33.798Z,38.87
2019-01-21T22:41:03.674Z,42.80
2019-01-21T22:43:33.765Z,40.40
2019-01-21T22:46:04.047Z,44.67
2019-01-21T22:48:34.021Z,43.07
2019-01-21T22:51:04.186Z,40.43
2019-01-21T22:53:34.248Z,41.87
2019-01-21T22:56:05.372Z,40.23
2019-01-21T22:58:34.821Z,41.63
2019-01-21T23:01:07.820Z,42.43
2019-01-21T23:03:37.241Z,40.87
2019-01-21T23:06:06.881Z,43.10
2019-01-21T23:08:36.319Z,41.20
2019-01-21T23:11:05.756Z,40.83
2019-01-21T23:13:35.188Z,41.53
2019-01-21T23:16:05.560Z,40.90
2019-01-21T23:18:35.458Z,43.13
2019-01-21T23:21:05.642Z,41.53
2019-01-21T23:23:35.744Z,42.50
2019-01-21T23:26:05.884Z,40.83
2019-01-21T23:28:36.066Z,46.13
2019-01-21T23:31:06.918Z,41.27
2019-01-21T23:33:36.344Z,40.73
2019-01-21T23:36:06.293Z,43.67
2019-01-21T23:38:36.416Z,41.57
2019-01-21T23:41:06.554Z,40.47
2019-01-21T23:43:36.654Z,40.07
2019-01-21T23:46:06.824Z,39.78
2019-01-21T23:48:36.834Z,40.33
2019-01-21T23:51:07.095Z,40.48
2019-01-21T23:53:37.095Z,40.73
2019-01-21T23:56:07.328Z,42.67
2019-01-21T23:58:37.327Z,44.57
